関西国際空港の過去48時間の天気

関西国際空港 (Kansai intl)

現在時刻: 12/14 15:36 JST (12/14 06:36 UTC) 以下の時間は現地時間です。

過去48時間のMETAR気象情報
時間 風向 風速(m/s) 視程 気温(℃) 湿度(%) 気圧(hPa) 天気現象
14 15:00 北北東 6 10km以上 9 53 1025
14 14:30 8 10km以上 9 53 1025
14 14:00 7 10km以上 9 53 1025
14 13:30 8 10km以上 9 53 1025
14 13:00 7 10km以上 9 53 1025
14 12:30 8 10km以上 8 57 1025 周辺でしゅう雨
14 12:00 6 10km以上 8 61 1026
14 11:30 6 10km以上 8 66 1026
14 11:00 6 10km以上 8 66 1027
14 10:30 北北西 8 10km以上 8 66 1027
14 10:00 7 10km以上 7 66 1027
14 09:30 北北西 6 10km以上 8 61 1027
14 09:00 北北西 9 10km以上 8 61 1027
14 08:30 北北西 7 10km以上 8 61 1026
14 08:00 北北西 6 10km以上 7 70 1026
14 07:30 北北西 6 10km以上 7 66 1026
14 07:00 北北西 7 10km以上 7 66 1026
14 06:30 北北西 7 10km以上 7 70 1025
14 06:00 北北西 10 10km以上 7 70 1025
14 05:30 北西 11 10km以上 8 61 1025
14 05:00 北西 11 10km以上 8 66 1025
14 04:30 北西 10 10km以上 8 66 1024
14 04:00 北西 10 10km以上 8 66 1024
14 03:30 北西 9 10km以上 8 66 1024
14 03:00 西北西 9 10km以上 8 66 1024
14 02:30 北西 9 10km以上 9 62 1024
14 02:00 西北西 10 10km以上 9 57 1024
14 01:30 西北西 10 10km以上 9 62 1024
14 01:00 西北西 7 10km以上 9 57 1024
14 00:30 西北西 9 10km以上 9 57 1024
14 00:00 西 10 10km以上 9 57 1024
13 23:35 西北西 11 10km以上 9 57 1023
13 23:30 西北西 12 10km以上 9 57 1023
13 23:08 西北西 12 10km以上 9 50 1023
13 23:00 西北西 12 10km以上 10 50 1023
13 22:30 西北西 10 10km以上 10 46 1023
13 22:12 西北西 11 10km以上 9 50 1023
13 22:00 西北西 11 10km以上 10 50 1023
13 21:30 西北西 11 10km以上 10 50 1023
13 21:00 西北西 10 10km以上 10 58 1023
13 20:30 北西 10 10km以上 10 62 1023 弱いしゅう雨
13 20:23 北北西 9 10km以上 10 66 1023 周辺でしゅう雨
13 20:00 西 10 10km以上 11 54 1022 周辺でしゅう雨
13 19:30 西 11 10km以上 11 54 1022 周辺でしゅう雨
13 19:00 西 10 10km以上 11 50 1022 周辺でしゅう雨
13 18:30 西 10 10km以上 10 71 1022 周辺でしゅう雨
13 18:00 西南西 6 10km以上 10 71 1022
13 17:30 西南西 4 10km以上 10 66 1022
13 17:00 南西 3 10km以上 10 66 1022
13 16:30 南南西 3 10km以上 9 71 1021
13 16:00 南西 3 10km以上 10 66 1022
13 15:30 南西 4 10km以上 10 62 1022
13 15:00 南西 4 10km以上 10 62 1022
13 14:30 南南西 2 10km以上 10 66 1022
13 14:00 2 10km以上 9 66 1022
13 13:30 西南西 2 10km以上 10 62 1022
13 13:00 不定 2 10km以上 9 66 1022
13 12:30 北北東 2 10km以上 9 66 1023 周辺でしゅう雨
13 12:00 北北東 3 10km以上 9 66 1023
13 11:30 北東 3 10km以上 10 62 1024
13 11:00 北東 5 10km以上 9 66 1024
13 10:30 3 10km以上 9 66 1025
13 10:00 4 10km以上 8 71 1024
13 09:30 5 10km以上 8 71 1025
13 09:00 5 10km以上 8 71 1025
13 08:30 北東 6 10km以上 8 76 1024
13 08:00 北東 6 10km以上 8 76 1024
13 07:30 北東 5 10km以上 8 76 1024
13 07:00 北東 4 10km以上 7 81 1023
13 06:30 北東 4 10km以上 7 76 1024
13 06:00 北北西 5 10km以上 7 70 1023
13 05:30 北北西 6 10km以上 8 71 1023
13 05:00 北北西 5 10km以上 8 71 1023
13 04:30 3 10km以上 8 71 1023
13 04:00 北北西 5 10km以上 8 71 1022
13 03:30 6 10km以上 8 71 1022
13 03:00 北北西 7 10km以上 8 71 1022
13 02:30 北北西 7 10km以上 8 71 1022
13 02:00 北北西 8 10km以上 8 71 1022
13 01:30 北北西 7 10km以上 8 76 1022
13 01:00 北北西 8 10km以上 8 76 1022
13 00:30 北北西 8 10km以上 8 71 1022
13 00:00 北北西 8 10km以上 8 71 1021
12 23:30 北北西 7 10km以上 8 71 1021
12 23:00 北北西 7 10km以上 8 71 1021
12 22:30 北北西 8 10km以上 8 71 1021
12 22:00 北北西 9 10km以上 8 71 1021
12 21:30 北北西 9 10km以上 8 76 1021
12 21:00 北北西 8 10km以上 8 76 1021
12 20:30 北北西 8 10km以上 9 66 1021
12 20:00 北北西 9 10km以上 9 66 1021
12 19:30 北北西 8 10km以上 9 66 1020
12 19:00 10 10km以上 9 66 1020
12 18:30 10 10km以上 9 66 1020
12 18:00 10 10km以上 10 66 1019
12 17:30 9 10km以上 10 62 1019
12 17:00 9 10km以上 11 62 1018
12 16:30 10 10km以上 11 58 1018
12 16:00 北北西 11 10km以上 12 54 1018
RJBB 140600Z 02011KT 9999 FEW025 BKN080 09/M00 Q1025 NOSIG
RJBB 140530Z 01015KT 9999 FEW025 09/M00 Q1025 NOSIG
RJBB 140500Z 01014KT 9999 FEW025 SCT035 09/00 Q1025 NOSIG
RJBB 140430Z 35016KT 9999 FEW025 BKN035 09/M00 Q1025 NOSIG
RJBB 140400Z 01014KT 9999 FEW025 SCT035 09/00 Q1025 NOSIG
RJBB 140330Z 36016KT 9999 VCSH FEW025 SCT035 BKN045 08/00 Q1025 NOSIG
RJBB 140300Z 35012KT 9999 FEW025 SCT035 BKN045 08/01 Q1026 NOSIG
RJBB 140230Z 35012KT 290V040 9999 FEW020 SCT030 BKN040 08/02 Q1026 NOSIG
RJBB 140200Z 35011KT 9999 FEW020 SCT030 BKN040 08/02 Q1027 NOSIG
RJBB 140130Z 34015KT 9999 FEW020 SCT040 08/02 Q1027 NOSIG
RJBB 140100Z 35013KT 320V030 9999 FEW020 SCT030 BKN040 07/01 Q1027 NOSIG
RJBB 140030Z 34012KT 9999 FEW020 SCT040 08/01 Q1027 NOSIG
RJBB 140000Z 34017KT 9999 FEW020 08/01 Q1027 NOSIG
RJBB 132330Z 34014KT 9999 FEW020 08/01 Q1026 NOSIG
RJBB 132300Z 34012KT 9999 FEW020 SCT040 07/02 Q1026 NOSIG
RJBB 132230Z 34012KT 9999 FEW020 SCT040 07/01 Q1026 NOSIG
RJBB 132200Z 34013KT 9999 FEW020 BKN080 07/01 Q1026 NOSIG
RJBB 132130Z 33014KT 9999 FEW020 BKN080 07/02 Q1025 NOSIG
RJBB 132100Z 33019KT 9999 FEW020 BKN080 07/02 Q1025 NOSIG
RJBB 132030Z AUTO 32022KT 9999 FEW025 OVC080 08/01 Q1025 BECMG 33017KT
RJBB 132000Z AUTO 32022KT 9999 FEW029 BKN070 OVC080 08/02 Q1025 BECMG 31017KT
RJBB 131930Z AUTO 31019KT 9999 FEW026 OVC080 08/02 Q1024 NOSIG
RJBB 131900Z AUTO 31020KT 9999 FEW030 BKN080 08/02 Q1024 NOSIG
RJBB 131830Z AUTO 32017KT 9999 BKN033 BKN036 08/02 Q1024 BECMG 31017KT
RJBB 131800Z AUTO 30017KT 9999 FEW033 08/02 Q1024 NOSIG
RJBB 131730Z AUTO 31017KT 9999 FEW032 SCT034 BKN038 09/02 Q1024 NOSIG
RJBB 131700Z AUTO 30020KT 9999 FEW037 09/01 Q1024 NOSIG
RJBB 131630Z AUTO 29020KT 9999 FEW035 SCT050 09/02 Q1024 NOSIG
RJBB 131600Z AUTO 29014KT 9999 FEW038 SCT060 BKN070 09/01 Q1024 NOSIG
RJBB 131530Z AUTO 30018KT 9999 FEW040 BKN070 09/01 Q1024 NOSIG
RJBB 131500Z AUTO 28019KT 9999 NSC 09/01 Q1024 NOSIG
RJBB 131435Z AUTO 30022G32KT 9999 FEW050 SCT060 BKN070 09/01 Q1023 RMK A3023
RJBB 131430Z AUTO 30024KT 9999 FEW050 SCT060 BKN070 09/01 Q1023 NOSIG
RJBB 131408Z AUTO 30023G33KT 9999 FEW050 09/M01 Q1023 RMK A3023
RJBB 131400Z AUTO 30024KT 9999 FEW050 10/M00 Q1023 NOSIG
RJBB 131330Z 29020KT 9999 FEW020 10/M01 Q1023 TEMPO 29022G33KT
RJBB 131312Z 29022G32KT 9999 FEW020 09/M01 Q1023 RMK 1CU020 A3023
RJBB 131300Z 30021KT 9999 FEW020 10/M00 Q1023 TEMPO 29022G33KT
RJBB 131230Z 30022KT 9999 FEW020 10/00 Q1023 TEMPO 29022G33KT
RJBB 131200Z 30019KT 9999 FEW020 BKN040 10/02 Q1023 TEMPO 29022G33KT
RJBB 131130Z 32019KT 9999 -SHRA FEW020 BKN040 10/03 Q1023 BECMG 29020KT TEMPO 29022G33KT
RJBB 131123Z 33018KT 9999 VCSH FEW020 BKN040 10/04 Q1023 RMK 1CU020 6CU040 A3021
RJBB 131100Z 27020KT 9999 VCSH FEW025 SCT040 11/02 Q1022 TEMPO 29022G33KT
RJBB 131030Z 27022KT 9999 VCSH FEW025 SCT040 11/02 Q1022 TEMPO 29022G34KT
RJBB 131000Z 26020KT 9999 VCSH FEW025 BKN040 11/01 Q1022 NOSIG
RJBB 130930Z 26019KT 9999 VCSH FEW025 BKN040 10/05 Q1022 NOSIG
RJBB 130900Z 25011KT 9999 FEW025 BKN040 10/05 Q1022 NOSIG
RJBB 130830Z 24008KT 9999 FEW025 BKN040 10/04 Q1022 BECMG 29020KT
RJBB 130800Z 22006KT 180V250 9999 FEW025 BKN040 10/04 Q1022 BECMG 29020KT
RJBB 130730Z 20006KT 9999 FEW025 09/04 Q1021 NOSIG
RJBB 130700Z 22005KT 190V270 9999 FEW025 10/04 Q1022 NOSIG
RJBB 130630Z 23008KT 9999 FEW025 SCT045 10/03 Q1022 NOSIG
RJBB 130600Z 22008KT 9999 FEW025 SCT040 10/03 Q1022 NOSIG
RJBB 130530Z 20003KT 160V230 9999 FEW025 SCT040 10/04 Q1022 NOSIG
RJBB 130500Z 19004KT 9999 FEW025 SCT040 09/03 Q1022 NOSIG
RJBB 130430Z 25004KT 210V310 9999 FEW025 SCT040 10/03 Q1022 NOSIG
RJBB 130400Z VRB04KT 9999 FEW020 SCT035 09/03 Q1022 BECMG 24007KT
RJBB 130330Z 03003KT 350V100 9999 VCSH FEW020 SCT035 09/03 Q1023 NOSIG
RJBB 130300Z 03005KT 350V060 9999 FEW020 09/03 Q1023 BECMG 30004KT
RJBB 130230Z 04006KT 010V080 9999 FEW020 SCT045 10/03 Q1024 BECMG 30004KT
RJBB 130200Z 04009KT 9999 FEW020 SCT045 09/03 Q1024 NOSIG
RJBB 130130Z 09006KT 060V120 9999 FEW020 SCT045 BKN070 09/03 Q1025 NOSIG
RJBB 130100Z 09007KT 9999 FEW020 SCT035 BKN060 08/03 Q1024 NOSIG
RJBB 130030Z 08009KT 9999 FEW020 SCT035 BKN060 08/03 Q1025 NOSIG
RJBB 130000Z 08009KT 9999 FEW015 SCT030 BKN070 08/03 Q1025 NOSIG
RJBB 122330Z 05012KT 9999 FEW020 SCT035 08/04 Q1024 NOSIG
RJBB 122300Z 04011KT 9999 FEW015 SCT030 08/04 Q1024 NOSIG
RJBB 122230Z 04009KT 9999 FEW015 SCT030 08/04 Q1024 NOSIG
RJBB 122200Z 04008KT 9999 FEW015 SCT030 07/04 Q1023 NOSIG
RJBB 122130Z 05007KT 010V070 9999 FEW020 SCT030 07/03 Q1024 NOSIG
RJBB 122100Z 34010KT 310V020 9999 FEW020 SCT030 07/02 Q1023 NOSIG
RJBB 122030Z AUTO 33011KT 9999 NCD 08/03 Q1023 NOSIG
RJBB 122000Z AUTO 33010KT 310V010 9999 FEW027 SCT060 08/03 Q1023 NOSIG
RJBB 121930Z AUTO 35006KT 300V040 9999 FEW027 BKN060 08/03 Q1023 NOSIG
RJBB 121900Z AUTO 34009KT 9999 NSC 08/03 Q1022 NOSIG
RJBB 121830Z AUTO 35012KT 9999 NSC 08/03 Q1022 NOSIG
RJBB 121800Z AUTO 33014KT 9999 NSC 08/03 Q1022 NOSIG
RJBB 121730Z AUTO 33014KT 9999 NCD 08/03 Q1022 NOSIG
RJBB 121700Z AUTO 33016KT 9999 NCD 08/03 Q1022 NOSIG
RJBB 121630Z AUTO 34014KT 9999 NCD 08/04 Q1022 NOSIG
RJBB 121600Z AUTO 33015KT 9999 NCD 08/04 Q1022 NOSIG
RJBB 121530Z AUTO 33015KT 9999 NCD 08/03 Q1022 NOSIG
RJBB 121500Z AUTO 34015KT 9999 NCD 08/03 Q1021 NOSIG
RJBB 121430Z AUTO 34014KT 9999 NCD 08/03 Q1021 NOSIG
RJBB 121400Z AUTO 33013KT 9999 NCD 08/03 Q1021 NOSIG
RJBB 121330Z 34015KT 9999 FEW020 08/03 Q1021 NOSIG
RJBB 121300Z 34017KT 9999 FEW020 08/03 Q1021 NOSIG
RJBB 121230Z 34017KT 9999 FEW020 08/04 Q1021 NOSIG
RJBB 121200Z 34016KT 9999 FEW020 08/04 Q1021 NOSIG
RJBB 121130Z 34015KT 9999 FEW025 09/03 Q1021 NOSIG
RJBB 121100Z 34017KT 9999 FEW025 09/03 Q1021 NOSIG
RJBB 121030Z 34016KT 9999 FEW020 09/03 Q1020 NOSIG
RJBB 121000Z 36019KT 9999 FEW020 09/03 Q1020 NOSIG
RJBB 120930Z 36020KT 9999 FEW020 09/03 Q1020 NOSIG
RJBB 120900Z 36020KT 9999 FEW020 10/04 Q1019 NOSIG
RJBB 120830Z 36018KT 9999 FEW015 10/03 Q1019 NOSIG
RJBB 120800Z 35018KT 9999 FEW015 SCT045 11/04 Q1018 NOSIG
RJBB 120730Z 35020KT 9999 FEW015 SCT045 11/03 Q1018 NOSIG
RJBB 120700Z 34021KT 9999 FEW015 BKN045 12/03 Q1018 TEMPO 36022G33KT